createdAt,value
2017-11-18T00:00:00.561Z,6.2
2017-11-18T00:01:02.242Z,6.3
2017-11-18T00:02:03.883Z,6.2
2017-11-18T00:03:05.668Z,6.3
2017-11-18T00:04:07.376Z,6.2
2017-11-18T00:05:09.142Z,6.2
2017-11-18T00:06:10.835Z,6.2
2017-11-18T00:07:12.549Z,6.1
2017-11-18T00:08:14.309Z,6.2
2017-11-18T00:09:16.038Z,6.2
2017-11-18T00:10:17.726Z,6.1
2017-11-18T00:11:19.531Z,6.2
2017-11-18T00:12:21.262Z,6.2
2017-11-18T00:13:22.906Z,6.2
2017-11-18T00:14:24.703Z,6.2
2017-11-18T00:15:26.433Z,6.2
2017-11-18T00:16:28.113Z,6.2
2017-11-18T00:17:29.749Z,6.2
2017-11-18T00:18:31.302Z,6.2
2017-11-18T00:19:32.994Z,6.2
2017-11-18T00:20:34.659Z,6.0
2017-11-18T00:21:36.382Z,6.1
2017-11-18T00:22:37.994Z,6.0
2017-11-18T00:23:39.774Z,6.2
2017-11-18T00:24:41.615Z,6.1
2017-11-18T00:25:43.312Z,6.1
2017-11-18T00:26:45.030Z,6.1
2017-11-18T00:27:46.706Z,6.1
2017-11-18T00:28:48.434Z,6.1
2017-11-18T00:29:50.279Z,6.0
2017-11-18T00:30:52.074Z,6.0
2017-11-18T00:31:53.856Z,6.1
2017-11-18T00:32:55.627Z,6.0
2017-11-18T00:33:57.391Z,5.9
2017-11-18T00:34:59.184Z,6.0
2017-11-18T00:36:00.857Z,5.9
2017-11-18T00:37:02.596Z,5.9
2017-11-18T00:38:04.314Z,5.9
2017-11-18T00:39:06.008Z,5.9
2017-11-18T00:40:07.745Z,5.9
2017-11-18T00:41:09.540Z,5.9
2017-11-18T00:42:11.208Z,5.9
2017-11-18T00:43:12.997Z,5.9
2017-11-18T00:44:14.668Z,5.9
2017-11-18T00:45:16.341Z,5.9
2017-11-18T00:46:18.092Z,5.9
2017-11-18T00:47:19.804Z,5.8
2017-11-18T00:48:21.670Z,5.9
2017-11-18T00:49:23.363Z,6.0
2017-11-18T00:50:25.039Z,5.9
2017-11-18T00:51:26.841Z,6.0
2017-11-18T00:52:28.719Z,6.0
2017-11-18T00:53:30.397Z,6.0
2017-11-18T00:54:32.145Z,5.9
2017-11-18T00:55:33.874Z,6.0
2017-11-18T00:56:35.597Z,5.9
2017-11-18T00:57:37.480Z,5.9
2017-11-18T00:58:39.383Z,5.8
2017-11-18T00:59:41.090Z,5.8
2017-11-18T01:00:42.776Z,5.8
2017-11-18T01:01:44.532Z,5.8
2017-11-18T01:02:46.207Z,5.8
2017-11-18T01:03:48.130Z,5.8
2017-11-18T01:04:49.867Z,5.7
2017-11-18T01:05:51.676Z,5.8
2017-11-18T01:06:53.435Z,5.8
2017-11-18T01:07:55.113Z,5.7
2017-11-18T01:08:56.808Z,5.7
2017-11-18T01:09:58.531Z,5.7
2017-11-18T01:11:00.172Z,5.7
2017-11-18T01:12:01.948Z,5.8
2017-11-18T01:13:03.682Z,5.7
2017-11-18T01:14:05.363Z,5.7
2017-11-18T01:15:07.091Z,5.7
2017-11-18T01:16:08.729Z,5.6
2017-11-18T01:17:10.556Z,5.6
2017-11-18T01:18:12.258Z,5.5
2017-11-18T01:19:13.944Z,5.7
2017-11-18T01:20:15.575Z,5.7
2017-11-18T01:21:17.236Z,5.6
2017-11-18T01:22:18.897Z,5.6
2017-11-18T01:23:20.580Z,5.7
2017-11-18T01:24:22.377Z,5.7
2017-11-18T01:25:23.871Z,5.7
2017-11-18T01:26:25.559Z,5.7
2017-11-18T01:27:27.244Z,5.6
2017-11-18T01:28:28.957Z,5.7
2017-11-18T01:29:30.633Z,5.6
2017-11-18T01:30:32.384Z,5.6
2017-11-18T01:31:34.100Z,5.7
2017-11-18T01:32:35.784Z,5.8
2017-11-18T01:33:37.457Z,5.7
2017-11-18T01:34:39.198Z,5.7
2017-11-18T01:35:40.900Z,5.6
2017-11-18T01:36:42.672Z,5.7
2017-11-18T01:37:44.251Z,5.5
2017-11-18T01:38:46.005Z,5.6
2017-11-18T01:39:47.708Z,5.5
2017-11-18T01:40:49.381Z,5.6
2017-11-18T01:41:50.967Z,5.6
2017-11-18T01:42:52.564Z,5.6
2017-11-18T01:43:54.221Z,5.5
2017-11-18T01:44:55.879Z,5.6
2017-11-18T01:45:57.373Z,5.6
2017-11-18T01:46:59.098Z,5.6
2017-11-18T01:48:00.827Z,5.6
2017-11-18T01:49:02.508Z,5.6
2017-11-18T01:50:04.048Z,5.6
2017-11-18T01:51:05.671Z,5.5
2017-11-18T01:52:07.195Z,5.5
2017-11-18T01:53:08.872Z,5.5
2017-11-18T01:54:10.506Z,5.5
2017-11-18T01:55:12.356Z,5.5
2017-11-18T01:56:13.843Z,5.5
2017-11-18T01:57:15.620Z,5.5
2017-11-18T01:58:17.382Z,5.5
2017-11-18T01:59:19.062Z,5.5
2017-11-18T02:00:20.564Z,5.4
2017-11-18T02:01:22.293Z,5.4
2017-11-18T02:02:23.917Z,5.3
2017-11-18T02:03:25.686Z,5.3
2017-11-18T02:04:27.167Z,5.3
2017-11-18T02:05:28.924Z,5.3
2017-11-18T02:06:31.077Z,5.3
2017-11-18T02:07:32.830Z,5.3
2017-11-18T02:08:34.546Z,5.3
2017-11-18T02:09:36.289Z,5.2
2017-11-18T02:10:37.996Z,5.2
2017-11-18T02:11:39.746Z,5.3
2017-11-18T02:12:41.563Z,5.2
2017-11-18T02:13:43.225Z,5.3
2017-11-18T02:14:44.948Z,5.2
2017-11-18T02:15:46.688Z,5.2
2017-11-18T02:16:48.447Z,5.2
2017-11-18T02:17:50.099Z,5.2
2017-11-18T02:18:51.828Z,5.2
2017-11-18T02:19:53.517Z,5.1
2017-11-18T02:20:55.192Z,5.1
2017-11-18T02:21:56.747Z,5.1
2017-11-18T02:22:58.256Z,5.1
2017-11-18T02:23:59.993Z,5.1
2017-11-18T02:25:01.639Z,5.1
2017-11-18T02:26:03.139Z,5.2
2017-11-18T02:27:04.802Z,5.1
2017-11-18T02:28:06.398Z,5.1
2017-11-18T02:29:08.167Z,5.1
2017-11-18T02:30:09.820Z,5.1
2017-11-18T02:31:11.759Z,5.1
2017-11-18T02:32:13.609Z,5.1
2017-11-18T02:33:15.397Z,5.1
2017-11-18T02:34:17.030Z,5.1
2017-11-18T02:35:18.727Z,5.1
2017-11-18T02:36:20.446Z,5.1
2017-11-18T02:37:22.186Z,5.0
2017-11-18T02:38:23.924Z,5.2
2017-11-18T02:39:25.585Z,5.1
2017-11-18T02:40:27.315Z,5.2
2017-11-18T02:41:28.821Z,5.1
2017-11-18T02:42:30.604Z,5.2
2017-11-18T02:43:32.307Z,5.2
2017-11-18T02:44:34.063Z,5.1
2017-11-18T02:45:35.611Z,5.2
2017-11-18T02:46:37.042Z,5.1
2017-11-18T02:47:38.724Z,5.1
2017-11-18T02:48:40.393Z,5.2
2017-11-18T02:49:42.037Z,5.1
2017-11-18T02:50:43.552Z,5.2
2017-11-18T02:51:45.205Z,5.1
2017-11-18T02:52:47.025Z,5.2
2017-11-18T02:53:48.721Z,5.1
2017-11-18T02:54:50.392Z,5.1
2017-11-18T02:55:52.198Z,5.2
2017-11-18T02:56:53.946Z,5.2
2017-11-18T02:57:55.607Z,5.2
2017-11-18T02:58:57.111Z,5.1
2017-11-18T02:59:58.850Z,5.1
2017-11-18T03:01:00.564Z,5.2
2017-11-18T03:02:02.322Z,5.2
2017-11-18T03:03:04.085Z,5.2
2017-11-18T03:04:05.736Z,5.2
2017-11-18T03:05:07.495Z,5.3
2017-11-18T03:06:09.010Z,5.3
2017-11-18T03:07:10.693Z,5.3
2017-11-18T03:08:12.421Z,5.2
2017-11-18T03:09:14.230Z,5.2
2017-11-18T03:10:15.718Z,5.3
2017-11-18T03:11:17.317Z,5.3
2017-11-18T03:12:18.808Z,5.2
2017-11-18T03:13:20.543Z,5.3
2017-11-18T03:14:22.016Z,5.3
2017-11-18T03:15:23.692Z,5.2
2017-11-18T03:16:25.188Z,5.2
2017-11-18T03:17:26.915Z,5.2
2017-11-18T03:18:28.652Z,5.2
2017-11-18T03:19:30.343Z,5.2
2017-11-18T03:20:32.077Z,5.3
2017-11-18T03:21:33.537Z,5.4
2017-11-18T03:22:35.284Z,5.3
2017-11-18T03:23:37.005Z,5.4
2017-11-18T03:24:38.949Z,5.3
2017-11-18T03:25:40.859Z,5.3
2017-11-18T03:26:42.577Z,5.3
2017-11-18T03:27:44.056Z,5.4
2017-11-18T03:28:45.817Z,5.3
2017-11-18T03:29:47.507Z,5.4
2017-11-18T03:30:49.333Z,5.4
2017-11-18T03:31:51.115Z,5.4
2017-11-18T03:32:52.862Z,5.5
2017-11-18T03:33:54.571Z,5.4
2017-11-18T03:34:56.155Z,5.5
2017-11-18T03:35:57.839Z,5.4
2017-11-18T03:36:59.480Z,5.5
2017-11-18T03:38:01.320Z,5.5
2017-11-18T03:39:03.053Z,5.6
2017-11-18T03:40:04.743Z,5.6
2017-11-18T03:41:06.444Z,5.5
2017-11-18T03:42:08.166Z,5.6
2017-11-18T03:43:09.837Z,5.6
2017-11-18T03:44:11.547Z,5.6
2017-11-18T03:45:13.161Z,5.6
2017-11-18T03:46:14.906Z,5.7
2017-11-18T03:47:16.663Z,5.7
2017-11-18T03:48:18.197Z,5.7
2017-11-18T03:49:19.858Z,5.8
2017-11-18T03:50:21.659Z,5.6
2017-11-18T03:51:23.410Z,5.7
2017-11-18T03:52:24.933Z,5.7
2017-11-18T03:53:26.610Z,5.6
2017-11-18T03:54:28.302Z,5.6
2017-11-18T03:55:30.059Z,5.8
2017-11-18T03:56:31.761Z,5.7
2017-11-18T03:57:33.562Z,5.7
2017-11-18T03:58:35.316Z,5.8
2017-11-18T03:59:37.143Z,5.8
2017-11-18T04:00:38.945Z,5.7
2017-11-18T04:01:40.433Z,5.8
2017-11-18T04:02:42.142Z,5.8
2017-11-18T04:03:43.932Z,5.8
2017-11-18T04:04:45.618Z,5.9
2017-11-18T04:05:47.150Z,5.8
2017-11-18T04:06:48.643Z,5.9
2017-11-18T04:07:50.314Z,5.8
2017-11-18T04:08:51.970Z,5.8
2017-11-18T04:09:53.731Z,5.9
2017-11-18T04:10:55.421Z,5.9
2017-11-18T04:11:56.859Z,5.9
2017-11-18T04:12:58.562Z,6.0
2017-11-18T04:14:00.320Z,5.9
2017-11-18T04:15:02.031Z,5.9
2017-11-18T04:16:03.609Z,5.8
2017-11-18T04:17:05.313Z,5.8
2017-11-18T04:18:07.085Z,5.9
2017-11-18T04:19:08.713Z,5.8
2017-11-18T04:20:10.386Z,5.8
2017-11-18T04:21:12.180Z,5.9
2017-11-18T04:22:13.829Z,5.9
2017-11-18T04:23:15.573Z,5.8
2017-11-18T04:24:17.251Z,5.8
2017-11-18T04:25:18.972Z,5.9
2017-11-18T04:26:20.397Z,5.8
2017-11-18T04:27:22.092Z,5.9
2017-11-18T04:28:23.822Z,5.9
2017-11-18T04:29:25.652Z,5.9
2017-11-18T04:30:27.076Z,5.9
2017-11-18T04:31:28.754Z,5.9
2017-11-18T04:32:30.516Z,6.0
2017-11-18T04:33:32.228Z,5.9
2017-11-18T04:34:33.933Z,5.9
2017-11-18T04:35:35.597Z,5.9
2017-11-18T04:36:37.459Z,5.9
2017-11-18T04:37:39.238Z,5.8
2017-11-18T04:38:40.918Z,5.8
2017-11-18T04:39:42.564Z,5.9
2017-11-18T04:40:44.310Z,5.8
2017-11-18T04:41:46.097Z,5.9
2017-11-18T04:42:47.746Z,5.9
2017-11-18T04:43:49.408Z,5.9
2017-11-18T04:44:51.371Z,5.9
2017-11-18T04:45:53.214Z,5.8
2017-11-18T04:46:54.926Z,5.8
2017-11-18T04:47:56.601Z,5.8
2017-11-18T04:48:58.404Z,5.7
2017-11-18T04:50:00.103Z,5.8
2017-11-18T04:51:01.784Z,5.8
2017-11-18T04:52:03.336Z,5.7
2017-11-18T04:53:05.042Z,5.8
2017-11-18T04:54:06.779Z,5.8
2017-11-18T04:55:08.485Z,5.9
2017-11-18T04:56:10.157Z,5.8
2017-11-18T04:57:11.887Z,5.8
2017-11-18T04:58:13.585Z,5.8
2017-11-18T04:59:15.356Z,5.8
2017-11-18T05:00:17.059Z,5.9
2017-11-18T05:01:18.756Z,5.9
2017-11-18T05:02:20.467Z,5.9
2017-11-18T05:03:22.241Z,6.0
2017-11-18T05:04:24.076Z,5.9
2017-11-18T05:05:25.864Z,5.9
2017-11-18T05:06:27.513Z,5.9
2017-11-18T05:07:29.244Z,5.9
2017-11-18T05:08:30.929Z,5.9
2017-11-18T05:09:32.411Z,5.9
2017-11-18T05:10:33.876Z,5.8
2017-11-18T05:11:35.591Z,5.9
2017-11-18T05:12:37.104Z,6.0
2017-11-18T05:13:38.555Z,6.0
2017-11-18T05:14:40.244Z,6.0
2017-11-18T05:15:41.956Z,5.9
2017-11-18T05:16:43.790Z,5.9
2017-11-18T05:17:45.524Z,5.9
2017-11-18T05:18:46.956Z,5.8
2017-11-18T05:19:48.484Z,5.9
2017-11-18T05:20:50.211Z,5.9
2017-11-18T05:21:51.872Z,5.8
2017-11-18T05:22:53.601Z,5.8
2017-11-18T05:23:55.313Z,5.8
2017-11-18T05:24:57.019Z,5.8
2017-11-18T05:25:58.797Z,5.8
2017-11-18T05:27:00.541Z,5.8
2017-11-18T05:28:02.303Z,5.8
2017-11-18T05:29:04.041Z,5.9
2017-11-18T05:30:05.705Z,5.8
2017-11-18T05:31:07.343Z,5.9
2017-11-18T05:32:09.007Z,5.9
2017-11-18T05:33:10.582Z,5.8
2017-11-18T05:34:12.230Z,5.8
2017-11-18T05:35:13.986Z,5.8
2017-11-18T05:36:15.678Z,5.8
2017-11-18T05:37:17.367Z,5.9
2017-11-18T05:38:19.093Z,5.9
2017-11-18T05:39:20.840Z,5.9
2017-11-18T05:40:22.589Z,5.8
2017-11-18T05:41:24.061Z,5.9
2017-11-18T05:42:25.689Z,5.8
2017-11-18T05:43:27.435Z,5.8
2017-11-18T05:44:29.166Z,5.8
2017-11-18T05:45:30.850Z,5.9
2017-11-18T05:46:32.675Z,5.9
2017-11-18T05:47:34.265Z,5.9
2017-11-18T05:48:35.956Z,5.8
2017-11-18T05:49:37.660Z,5.9
2017-11-18T05:50:39.357Z,5.8
2017-11-18T05:51:41.013Z,5.8
2017-11-18T05:52:42.696Z,5.8
2017-11-18T05:53:44.436Z,5.9
2017-11-18T05:54:46.442Z,5.8
2017-11-18T05:55:48.284Z,5.9
2017-11-18T05:56:49.986Z,5.9
2017-11-18T05:57:51.629Z,5.9
2017-11-18T05:58:53.335Z,5.9
2017-11-18T05:59:55.071Z,5.9
2017-11-18T06:00:56.773Z,5.9
2017-11-18T06:01:58.579Z,6.0
2017-11-18T06:03:00.130Z,5.9
2017-11-18T06:04:01.774Z,6.0
2017-11-18T06:05:03.518Z,6.1
2017-11-18T06:06:05.004Z,6.1
2017-11-18T06:07:06.471Z,6.1
2017-11-18T06:08:08.210Z,6.0
2017-11-18T06:09:09.773Z,6.0
2017-11-18T06:10:11.366Z,6.0
2017-11-18T06:11:12.864Z,6.0
2017-11-18T06:12:14.613Z,6.1
2017-11-18T06:13:16.359Z,6.1
2017-11-18T06:14:18.018Z,6.0
2017-11-18T06:15:19.682Z,6.1
2017-11-18T06:16:21.453Z,6.1
2017-11-18T06:17:23.153Z,6.1
2017-11-18T06:18:24.830Z,6.1
2017-11-18T06:19:26.481Z,6.1
2017-11-18T06:20:28.111Z,6.1
2017-11-18T06:21:29.788Z,6.1
2017-11-18T06:22:31.525Z,6.2
2017-11-18T06:23:33.042Z,6.1
2017-11-18T06:24:34.453Z,6.1
2017-11-18T06:25:35.947Z,6.1
2017-11-18T06:26:37.687Z,6.1
2017-11-18T06:27:39.405Z,6.1
2017-11-18T06:28:41.179Z,6.1
2017-11-18T06:29:42.668Z,6.2
2017-11-18T06:30:44.496Z,6.1
2017-11-18T06:31:45.963Z,6.1
2017-11-18T06:32:47.660Z,6.1
2017-11-18T06:33:49.384Z,6.1
2017-11-18T06:34:50.801Z,6.1
2017-11-18T06:35:52.260Z,6.1
2017-11-18T06:36:54.007Z,6.1
2017-11-18T06:37:55.427Z,6.1
2017-11-18T06:38:57.079Z,6.0
2017-11-18T06:39:58.704Z,6.1
2017-11-18T06:41:00.166Z,6.1
2017-11-18T06:42:01.598Z,6.1
2017-11-18T06:43:03.197Z,6.1
2017-11-18T06:44:04.862Z,6.0
2017-11-18T06:45:06.504Z,6.1
2017-11-18T06:46:08.202Z,6.1
2017-11-18T06:47:09.891Z,6.1
2017-11-18T06:48:11.522Z,6.1
2017-11-18T06:49:13.269Z,6.2
2017-11-18T06:50:14.962Z,6.2
2017-11-18T06:51:16.724Z,6.2
2017-11-18T06:52:18.502Z,6.2
2017-11-18T06:53:20.205Z,6.2
2017-11-18T06:54:21.990Z,6.3
2017-11-18T06:55:23.480Z,6.3
2017-11-18T06:56:24.989Z,6.3
2017-11-18T06:57:26.421Z,6.3
2017-11-18T06:58:28.102Z,6.3
2017-11-18T06:59:29.682Z,6.3
2017-11-18T07:00:31.118Z,6.3
2017-11-18T07:01:32.811Z,6.3
2017-11-18T07:02:34.289Z,6.2
2017-11-18T07:03:35.748Z,6.3
2017-11-18T07:04:37.502Z,6.3
2017-11-18T07:05:39.233Z,6.3
2017-11-18T07:06:40.920Z,6.4
2017-11-18T07:07:42.669Z,6.4
2017-11-18T07:08:44.477Z,6.3
2017-11-18T07:09:46.169Z,6.4
2017-11-18T07:10:47.898Z,6.3
2017-11-18T07:11:49.306Z,6.3
2017-11-18T07:12:50.741Z,6.3
2017-11-18T07:13:52.143Z,6.3
2017-11-18T07:14:53.903Z,6.3
2017-11-18T07:15:55.577Z,6.3
2017-11-18T07:16:57.023Z,6.3
2017-11-18T07:17:58.475Z,6.3
2017-11-18T07:19:00.175Z,6.4
2017-11-18T07:20:01.941Z,6.2
2017-11-18T07:21:03.653Z,6.3
2017-11-18T07:22:05.381Z,6.3
2017-11-18T07:23:07.135Z,6.3
2017-11-18T07:24:08.629Z,6.3
2017-11-18T07:25:10.102Z,6.4
2017-11-18T07:26:11.553Z,6.4
2017-11-18T07:27:12.969Z,6.4
2017-11-18T07:28:14.423Z,6.4
2017-11-18T07:29:16.003Z,6.4
2017-11-18T07:30:17.792Z,6.4
2017-11-18T07:31:19.470Z,6.5
2017-11-18T07:32:21.159Z,6.5
2017-11-18T07:33:22.932Z,6.5
2017-11-18T07:34:24.607Z,6.5
2017-11-18T07:35:26.316Z,6.6
2017-11-18T07:36:27.968Z,6.5
2017-11-18T07:37:29.713Z,6.5
2017-11-18T07:38:31.392Z,6.4
2017-11-18T07:39:33.138Z,6.5
2017-11-18T07:40:34.793Z,6.5
2017-11-18T07:41:36.526Z,6.6
2017-11-18T07:42:38.164Z,6.6
2017-11-18T07:43:39.906Z,6.6
2017-11-18T07:44:41.346Z,6.5
2017-11-18T07:45:43.063Z,6.6
2017-11-18T07:46:44.485Z,6.6
2017-11-18T07:47:46.116Z,6.6
2017-11-18T07:48:47.879Z,6.7
2017-11-18T07:49:49.621Z,6.7
2017-11-18T07:50:51.407Z,6.8
2017-11-18T07:51:53.084Z,6.7
2017-11-18T07:52:54.772Z,6.8
2017-11-18T07:53:56.467Z,6.8
2017-11-18T07:54:58.263Z,6.8
2017-11-18T07:55:59.962Z,6.8
2017-11-18T07:57:01.702Z,6.9
2017-11-18T07:58:03.124Z,6.9
2017-11-18T07:59:04.549Z,6.9
2017-11-18T08:00:06.025Z,6.9
2017-11-18T08:01:07.498Z,6.7
2017-11-18T08:02:09.148Z,6.8
2017-11-18T08:03:10.579Z,6.7
2017-11-18T08:04:12.015Z,6.8
2017-11-18T08:05:13.687Z,6.8
2017-11-18T08:06:15.399Z,6.8
2017-11-18T08:07:16.865Z,6.7
2017-11-18T08:08:18.547Z,6.7
2017-11-18T08:09:20.201Z,6.8
2017-11-18T08:10:21.923Z,6.8
2017-11-18T08:11:23.649Z,6.7
2017-11-18T08:12:25.419Z,6.8
2017-11-18T08:13:26.825Z,6.8
2017-11-18T08:14:28.270Z,6.9
2017-11-18T08:15:29.857Z,6.8
2017-11-18T08:16:31.516Z,7.0
2017-11-18T08:17:33.064Z,6.9
2017-11-18T08:18:34.528Z,6.9
2017-11-18T08:19:36.222Z,6.9
2017-11-18T08:20:37.898Z,6.9
2017-11-18T08:21:39.364Z,6.9
2017-11-18T08:22:40.922Z,7.0
2017-11-18T08:23:42.359Z,6.9
2017-11-18T08:24:43.818Z,6.8
2017-11-18T08:25:45.484Z,6.8
2017-11-18T08:26:47.121Z,6.9
2017-11-18T08:27:48.863Z,6.9
2017-11-18T08:28:50.534Z,6.8
2017-11-18T08:29:52.259Z,6.9
2017-11-18T08:30:53.968Z,6.9
2017-11-18T08:31:55.653Z,7.0
2017-11-18T08:32:57.379Z,6.9
2017-11-18T08:33:59.109Z,6.9
2017-11-18T08:35:00.719Z,6.9
2017-11-18T08:36:02.160Z,6.9
2017-11-18T08:37:03.604Z,6.9
2017-11-18T08:38:05.124Z,6.8
2017-11-18T08:39:06.830Z,6.8
2017-11-18T08:40:08.594Z,6.8
2017-11-18T08:41:10.393Z,6.8
2017-11-18T08:42:11.816Z,6.9
2017-11-18T08:43:13.480Z,7.0
2017-11-18T08:44:14.922Z,6.9
2017-11-18T08:45:16.646Z,6.9
2017-11-18T08:46:18.155Z,6.9
2017-11-18T08:47:19.848Z,6.9
2017-11-18T08:48:21.549Z,6.9
2017-11-18T08:49:23.192Z,6.9
2017-11-18T08:50:24.850Z,7.1
2017-11-18T08:51:26.293Z,7.0
2017-11-18T08:52:27.803Z,7.1
2017-11-18T08:53:29.482Z,7.1
2017-11-18T08:54:30.934Z,7.1
2017-11-18T08:55:32.387Z,7.2
2017-11-18T08:56:33.882Z,7.1
2017-11-18T08:57:35.563Z,7.2
2017-11-18T08:58:37.168Z,7.2
2017-11-18T08:59:38.631Z,7.2
2017-11-18T09:00:40.156Z,7.2
2017-11-18T09:01:41.621Z,7.1
2017-11-18T09:02:43.391Z,7.1
2017-11-18T09:03:45.125Z,7.1
2017-11-18T09:04:46.541Z,7.1
2017-11-18T09:05:48.259Z,7.2
2017-11-18T09:06:49.698Z,7.1
2017-11-18T09:07:51.483Z,7.1
2017-11-18T09:08:53.173Z,7.1
2017-11-18T09:09:54.890Z,7.1
2017-11-18T09:10:56.666Z,7.1
2017-11-18T09:11:58.102Z,7.1
2017-11-18T09:13:00.461Z,7.2
2017-11-18T09:14:02.059Z,7.1
2017-11-18T09:15:03.752Z,7.1
2017-11-18T09:16:05.227Z,7.1
2017-11-18T09:17:06.743Z,7.2
2017-11-18T09:18:08.309Z,7.1
2017-11-18T09:19:10.024Z,7.2
2017-11-18T09:20:11.753Z,7.1
2017-11-18T09:21:13.434Z,7.2
2017-11-18T09:22:15.213Z,7.1
2017-11-18T09:23:16.858Z,7.2
2017-11-18T09:24:18.555Z,7.2
2017-11-18T09:25:20.236Z,7.2
2017-11-18T09:26:21.981Z,7.1
2017-11-18T09:27:23.480Z,7.1
2017-11-18T09:28:24.928Z,7.1
2017-11-18T09:29:26.466Z,7.1
2017-11-18T09:30:27.965Z,7.2
2017-11-18T09:31:29.583Z,7.3
2017-11-18T09:32:31.045Z,7.3
2017-11-18T09:33:32.476Z,7.2
2017-11-18T09:34:34.090Z,7.3
2017-11-18T09:35:35.791Z,7.3
2017-11-18T09:36:37.484Z,7.3
2017-11-18T09:37:39.242Z,7.2
2017-11-18T09:38:40.944Z,7.3
2017-11-18T09:39:42.633Z,7.2
2017-11-18T09:40:44.097Z,7.3
2017-11-18T09:41:45.575Z,7.2
2017-11-18T09:42:47.046Z,7.3
2017-11-18T09:43:48.752Z,7.2
2017-11-18T09:44:50.481Z,7.3
2017-11-18T09:45:52.265Z,7.2
2017-11-18T09:46:53.760Z,7.2
2017-11-18T09:47:55.399Z,7.2
2017-11-18T09:48:57.110Z,7.3
2017-11-18T09:49:58.552Z,7.2
2017-11-18T09:50:59.994Z,7.2
2017-11-18T09:52:01.708Z,7.2
2017-11-18T09:53:03.456Z,7.3
2017-11-18T09:54:04.876Z,7.2
2017-11-18T09:55:06.550Z,7.4
2017-11-18T09:56:08.301Z,7.3
2017-11-18T09:57:09.968Z,7.4
2017-11-18T09:58:11.610Z,7.5
2017-11-18T09:59:13.351Z,7.5
2017-11-18T10:00:15.003Z,7.4
2017-11-18T10:01:16.424Z,7.4
2017-11-18T10:02:18.136Z,7.4
2017-11-18T10:03:19.853Z,7.4
2017-11-18T10:04:21.530Z,7.5
2017-11-18T10:05:23.261Z,7.5
2017-11-18T10:06:24.674Z,7.5
2017-11-18T10:07:26.279Z,7.5
2017-11-18T10:08:28.030Z,7.5
2017-11-18T10:09:29.643Z,7.5
2017-11-18T10:10:31.451Z,7.5
2017-11-18T10:11:33.110Z,7.5
2017-11-18T10:12:34.793Z,7.5
2017-11-18T10:13:36.431Z,7.5
2017-11-18T10:14:38.166Z,7.5
2017-11-18T10:15:39.902Z,7.5
2017-11-18T10:16:41.281Z,7.5
2017-11-18T10:17:42.741Z,7.5
2017-11-18T10:18:44.508Z,7.6
2017-11-18T10:19:46.251Z,7.5
2017-11-18T10:20:47.989Z,7.6
2017-11-18T10:21:49.468Z,7.5
2017-11-18T10:22:51.118Z,7.6
2017-11-18T10:23:52.783Z,7.5
2017-11-18T10:24:54.549Z,7.6
2017-11-18T10:25:56.169Z,7.5
2017-11-18T10:26:57.619Z,7.6
2017-11-18T10:27:59.113Z,7.5
2017-11-18T10:29:00.591Z,7.5
2017-11-18T10:30:02.051Z,7.5
2017-11-18T10:31:03.750Z,7.5
2017-11-18T10:32:05.429Z,7.5
2017-11-18T10:33:07.168Z,7.6
2017-11-18T10:34:08.734Z,7.6
2017-11-18T10:35:10.420Z,7.6
2017-11-18T10:36:12.136Z,7.6
2017-11-18T10:37:13.680Z,7.5
2017-11-18T10:38:15.101Z,7.5
2017-11-18T10:39:16.528Z,7.5
2017-11-18T10:40:18.249Z,7.5
2017-11-18T10:41:19.940Z,7.5
2017-11-18T10:42:21.634Z,7.5
2017-11-18T10:43:23.303Z,7.5
2017-11-18T10:44:24.774Z,7.5
2017-11-18T10:45:26.188Z,7.5
2017-11-18T10:46:27.624Z,7.4
2017-11-18T10:47:29.358Z,7.5
2017-11-18T10:48:30.897Z,7.5
2017-11-18T10:49:32.737Z,7.5
2017-11-18T10:50:34.458Z,7.6
2017-11-18T10:51:35.961Z,7.6
2017-11-18T10:52:37.409Z,7.6
2017-11-18T10:53:38.922Z,7.7
2017-11-18T10:54:40.413Z,7.7
2017-11-18T10:55:41.923Z,7.7
2017-11-18T10:56:43.419Z,7.7
2017-11-18T10:57:45.087Z,7.7
2017-11-18T10:58:46.750Z,7.7
2017-11-18T10:59:48.496Z,7.7
2017-11-18T11:00:49.944Z,7.7
2017-11-18T11:01:51.405Z,7.6
2017-11-18T11:02:52.835Z,7.7
2017-11-18T11:03:54.318Z,7.5
2017-11-18T11:04:56.056Z,7.6
2017-11-18T11:05:57.574Z,7.6
2017-11-18T11:06:59.022Z,7.8
2017-11-18T11:08:00.623Z,7.8
2017-11-18T11:09:02.118Z,7.8
2017-11-18T11:10:03.633Z,7.8
2017-11-18T11:11:05.285Z,7.7
2017-11-18T11:12:07.015Z,7.7
2017-11-18T11:13:08.650Z,7.7
2017-11-18T11:14:10.082Z,7.8
2017-11-18T11:15:11.817Z,7.9
2017-11-18T11:16:13.489Z,7.8
2017-11-18T11:17:15.224Z,7.9
2017-11-18T11:18:16.684Z,7.8
2017-11-18T11:19:18.295Z,7.9
2017-11-18T11:20:19.976Z,7.9
2017-11-18T11:21:21.638Z,7.9
2017-11-18T11:22:23.118Z,7.9
2017-11-18T11:23:24.734Z,7.8
2017-11-18T11:24:26.424Z,7.9
2017-11-18T11:25:28.166Z,7.7
2017-11-18T11:26:30.003Z,7.8
2017-11-18T11:27:31.749Z,7.9
2017-11-18T11:28:33.430Z,7.9
2017-11-18T11:29:35.198Z,7.9
2017-11-18T11:30:36.949Z,7.9
2017-11-18T11:31:38.700Z,7.9
2017-11-18T11:32:40.565Z,8.0
2017-11-18T11:33:42.225Z,8.1
2017-11-18T11:34:43.989Z,8.1
2017-11-18T11:35:45.696Z,8.0
2017-11-18T11:36:47.369Z,7.9
2017-11-18T11:37:49.112Z,8.0
2017-11-18T11:38:50.734Z,8.0
2017-11-18T11:39:52.197Z,8.0
2017-11-18T11:40:53.642Z,8.1
2017-11-18T11:41:55.121Z,8.1
2017-11-18T11:42:56.629Z,8.2
2017-11-18T11:43:58.337Z,8.1
2017-11-18T11:45:00.065Z,8.1
2017-11-18T11:46:01.758Z,8.1
2017-11-18T11:47:03.526Z,8.2
2017-11-18T11:48:04.973Z,8.1
2017-11-18T11:49:06.649Z,8.1
2017-11-18T11:50:08.339Z,8.1
2017-11-18T11:51:10.096Z,8.1
2017-11-18T11:52:11.806Z,8.1
2017-11-18T11:53:13.507Z,8.1
2017-11-18T11:54:15.262Z,8.2
2017-11-18T11:55:17.040Z,8.3
2017-11-18T11:56:18.514Z,8.3
2017-11-18T11:57:20.058Z,8.4
2017-11-18T11:58:21.492Z,8.4
2017-11-18T11:59:23.302Z,8.4
2017-11-18T12:00:25.163Z,8.5
2017-11-18T12:01:26.903Z,8.5
2017-11-18T12:02:28.621Z,8.6
2017-11-18T12:03:30.407Z,8.6
2017-11-18T12:04:32.114Z,8.4
2017-11-18T12:05:33.866Z,8.6
2017-11-18T12:06:35.521Z,8.6
2017-11-18T12:07:36.961Z,8.5
2017-11-18T12:08:38.465Z,8.4
2017-11-18T12:09:39.930Z,8.4
2017-11-18T12:10:41.459Z,8.6
2017-11-18T12:11:43.226Z,8.6
2017-11-18T12:12:44.963Z,8.5
2017-11-18T12:13:46.427Z,8.5
2017-11-18T12:14:47.900Z,8.6
2017-11-18T12:15:49.533Z,8.5
2017-11-18T12:16:51.207Z,8.5
2017-11-18T12:17:52.916Z,8.5
2017-11-18T12:18:54.647Z,8.6
2017-11-18T12:19:56.361Z,8.6
2017-11-18T12:20:58.026Z,8.8
2017-11-18T12:21:59.599Z,8.8
2017-11-18T12:23:01.279Z,8.8
2017-11-18T12:24:03.006Z,8.9
2017-11-18T12:25:04.766Z,8.9
2017-11-18T12:26:06.435Z,8.9
2017-11-18T12:27:08.183Z,8.9
2017-11-18T12:28:09.877Z,8.9
2017-11-18T12:29:11.610Z,8.9
2017-11-18T12:30:13.299Z,8.9
2017-11-18T12:31:14.959Z,8.9
2017-11-18T12:32:16.666Z,8.9
2017-11-18T12:33:18.120Z,8.9
2017-11-18T12:34:19.570Z,9.1
2017-11-18T12:35:21.090Z,9.2
2017-11-18T12:36:22.526Z,9.1
2017-11-18T12:37:23.988Z,9.1
2017-11-18T12:38:25.555Z,9.2
2017-11-18T12:39:27.218Z,9.1
2017-11-18T12:40:28.999Z,9.1
2017-11-18T12:41:30.727Z,9.1
2017-11-18T12:42:32.359Z,9.1
2017-11-18T12:43:34.123Z,8.9
2017-11-18T12:44:35.853Z,9.0
2017-11-18T12:45:37.519Z,8.9
2017-11-18T12:46:39.033Z,8.9
2017-11-18T12:47:40.557Z,9.0
2017-11-18T12:48:42.041Z,9.2
2017-11-18T12:49:43.533Z,9.1
2017-11-18T12:50:45.236Z,9.1
2017-11-18T12:51:46.655Z,9.1
2017-11-18T12:52:48.096Z,9.0
2017-11-18T12:53:49.745Z,9.0
2017-11-18T12:54:51.231Z,8.9
2017-11-18T12:55:52.924Z,8.8
2017-11-18T12:56:54.663Z,8.8
2017-11-18T12:57:56.374Z,8.8
2017-11-18T12:58:57.868Z,8.7
2017-11-18T12:59:59.439Z,8.8
2017-11-18T13:01:01.204Z,8.8
2017-11-18T13:02:02.631Z,9.0
2017-11-18T13:03:04.274Z,8.9
2017-11-18T13:04:06.038Z,9.0
2017-11-18T13:05:07.561Z,9.0
2017-11-18T13:06:09.276Z,9.1
2017-11-18T13:07:11.010Z,9.2
2017-11-18T13:08:12.713Z,9.2
2017-11-18T13:09:14.481Z,9.2
2017-11-18T13:10:16.118Z,9.2
2017-11-18T13:11:17.820Z,9.3
2017-11-18T13:12:19.527Z,9.3
2017-11-18T13:13:21.227Z,9.2
2017-11-18T13:14:22.946Z,9.2
2017-11-18T13:15:24.737Z,9.2
2017-11-18T13:16:26.471Z,9.3
2017-11-18T13:17:27.913Z,9.3
2017-11-18T13:18:29.609Z,9.3
2017-11-18T13:19:31.076Z,9.3
2017-11-18T13:20:32.574Z,9.2
2017-11-18T13:21:34.027Z,9.0
2017-11-18T13:22:35.454Z,8.9
2017-11-18T13:23:37.252Z,8.9
2017-11-18T13:24:39.017Z,9.0
2017-11-18T13:25:40.507Z,9.0
2017-11-18T13:26:42.132Z,8.9
2017-11-18T13:27:43.879Z,8.9
2017-11-18T13:28:45.559Z,8.9
2017-11-18T13:29:47.266Z,9.1
2017-11-18T13:30:48.934Z,9.1
2017-11-18T13:31:50.700Z,9.0
2017-11-18T13:32:52.453Z,9.0
2017-11-18T13:33:54.175Z,9.1
2017-11-18T13:34:55.860Z,9.1
2017-11-18T13:35:57.662Z,9.1
2017-11-18T13:36:59.079Z,9.0
2017-11-18T13:38:01.183Z,8.9
2017-11-18T13:39:02.727Z,8.9
2017-11-18T13:40:04.433Z,9.0
2017-11-18T13:41:06.189Z,8.9
2017-11-18T13:42:07.861Z,8.8
2017-11-18T13:43:09.624Z,8.9
2017-11-18T13:44:11.396Z,8.8
2017-11-18T13:45:13.089Z,8.7
2017-11-18T13:46:14.787Z,8.8
2017-11-18T13:47:16.465Z,8.8
2017-11-18T13:48:18.220Z,8.7
2017-11-18T13:49:19.935Z,8.7
2017-11-18T13:50:21.368Z,8.8
2017-11-18T13:51:23.052Z,8.8
2017-11-18T13:52:24.485Z,8.7
2017-11-18T13:53:26.015Z,8.8
2017-11-18T13:54:27.718Z,8.8
2017-11-18T13:55:29.589Z,8.8
2017-11-18T13:56:31.292Z,8.7
2017-11-18T13:57:33.163Z,8.7
2017-11-18T13:58:34.877Z,8.7
2017-11-18T13:59:36.617Z,8.6
2017-11-18T14:00:38.085Z,8.6
2017-11-18T14:01:39.820Z,8.5
2017-11-18T14:02:41.532Z,8.5
2017-11-18T14:03:43.248Z,8.3
2017-11-18T14:04:44.954Z,8.3
2017-11-18T14:05:46.689Z,8.2
2017-11-18T14:06:48.340Z,8.2
2017-11-18T14:07:50.242Z,8.2
2017-11-18T14:08:51.703Z,8.1